Time;durP1;ratioP1;P1;durP2;ratioP2;P2;SDS_P1;SDS_P2;PMS_P1;PMS_P2;Temp;Humidity;BMP_temperature;BMP_pressure;BME280_temperature;BME280_humidity;BME280_pressure;Samples;Min_cycle;Max_cycle;Signal;HPM_P1;HPM_P2
2023/03/15 00:02:13;;;;;;;;;;;;;;;-0.74;100.00;99083.00;5091910;28;870;-55
2023/03/15 00:04:40;;;;;;;;;;;;;;;-0.76;100.00;99069.75;5091700;28;804;-55
2023/03/15 00:07:07;;;;;;;;;;;;;;;-0.76;100.00;99069.75;5091616;28;859;-56
2023/03/15 00:09:33;;;;;;;;;;;;;;;-0.72;100.00;99059.03;5091547;28;1979;-56
2023/03/15 00:12:00;;;;;;;;;;;;;;;-0.65;100.00;99056.50;5091573;28;882;-56
2023/03/15 00:14:28;;;;;;;;;;;;;;;-0.68;100.00;99055.25;5091438;28;1114;-56
2023/03/15 00:16:55;;;;;;;;;;;;;;;-0.71;100.00;99047.81;5091770;28;812;-55
2023/03/15 00:19:21;;;;;;;;;;;;;;;-0.77;100.00;99049.19;5091727;28;934;-56
2023/03/15 00:21:47;;;;;;;;;;;;;;;-0.88;100.00;99046.16;5091490;28;832;-55
2023/03/15 00:24:14;;;;;;;;;;;;;;;-0.92;100.00;99041.78;5091308;28;867;-54
2023/03/15 00:26:39;;;;;;;;;;;;;;;-0.87;100.00;99044.25;5091507;28;847;-55
2023/03/15 00:29:06;;;;;;;;;;;;;;;-0.82;100.00;99031.22;5091426;28;871;-56
2023/03/15 00:31:34;;;;;;;;;;;;;;;-0.83;100.00;99020.72;5091331;28;1983;-57
2023/03/15 00:34:01;;;;;;;;;;;;;;;-0.79;100.00;99021.63;5091441;28;871;-55
2023/03/15 00:36:27;;;;;;;;;;;;;;;-0.72;100.00;99021.81;5091326;28;918;-54
2023/03/15 00:38:55;;;;;;;;;;;;;;;-0.70;100.00;99010.63;5073180;28;1315;-55
2023/03/15 00:41:22;;;;;;;;;;;;;;;-0.74;100.00;99012.44;5091233;28;851;-54
2023/03/15 00:43:49;;;;;;;;;;;;;;;-0.71;100.00;98990.81;5091524;28;950;-55
2023/03/15 00:46:16;;;;;;;;;;;;;;;-0.59;100.00;98991.91;5091230;28;866;-54
2023/03/15 00:48:46;;;;;;;;;;;;;;;-0.56;100.00;98985.75;5091279;28;851;-56
2023/03/15 00:51:14;;;;;;;;;;;;;;;-0.57;100.00;98981.50;5091101;28;1866;-57
2023/03/15 00:53:42;;;;;;;;;;;;;;;-0.58;100.00;98977.97;5091148;28;827;-57
2023/03/15 00:56:10;;;;;;;;;;;;;;;-0.67;100.00;98978.13;5072963;28;1298;-55
2023/03/15 00:58:37;;;;;;;;;;;;;;;-0.79;100.00;98980.09;5091162;28;871;-56
2023/03/15 01:01:11;;;;;;;;;;;;;;;-0.79;100.00;98971.97;5091143;28;871;-57
2023/03/15 01:03:38;;;;;;;;;;;;;;;-0.69;100.00;98961.41;5091166;28;811;-57
2023/03/15 01:06:06;;;;;;;;;;;;;;;-0.69;100.00;98953.25;5091301;28;858;-56
2023/03/15 01:08:33;;;;;;;;;;;;;;;-0.72;100.00;98955.91;5091180;28;907;-57
2023/03/15 01:11:03;;;;;;;;;;;;;;;-0.72;100.00;98947.75;5091211;28;1977;-56
2023/03/15 01:13:30;;;;;;;;;;;;;;;-0.73;100.00;98946.94;5094905;28;862;-54
2023/03/15 01:15:56;;;;;;;;;;;;;;;-0.75;100.00;98943.00;5094853;28;867;-55
2023/03/15 01:18:23;;;;;;;;;;;;;;;-0.74;100.00;98942.66;5094874;28;800;-56
2023/03/15 01:20:50;;;;;;;;;;;;;;;-0.79;100.00;98944.84;5076547;28;1282;-57
2023/03/15 01:23:16;;;;;;;;;;;;;;;-0.87;100.00;98938.44;5094557;28;906;-56
2023/03/15 01:25:43;;;;;;;;;;;;;;;-0.92;100.00;98939.47;5094899;28;874;-56
2023/03/15 01:28:09;;;;;;;;;;;;;;;-0.85;100.00;98936.19;5094694;28;820;-56
2023/03/15 01:30:36;;;;;;;;;;;;;;;-0.77;100.00;98937.13;5094536;28;1914;-56
2023/03/15 01:33:03;;;;;;;;;;;;;;;-0.79;100.00;98925.84;5094482;28;887;-56
2023/03/15 01:35:29;;;;;;;;;;;;;;;-0.80;100.00;98927.78;5094537;28;898;-55
2023/03/15 01:37:55;;;;;;;;;;;;;;;-0.76;100.00;98923.22;5094677;28;843;-54
2023/03/15 01:40:22;;;;;;;;;;;;;;;-0.73;100.00;98919.81;5094742;28;819;-56
2023/03/15 01:43:03;;;;;;;;;;;;;;;-0.75;100.00;98919.38;5094579;28;848;-56
2023/03/15 01:45:48;;;;;;;;;;;;;;;-0.78;100.00;98917.34;5076023;28;1176;-55
2023/03/15 01:48:15;;;;;;;;;;;;;;;-0.72;100.00;98915.19;5094241;28;917;-57
2023/03/15 01:50:42;;;;;;;;;;;;;;;-0.72;100.00;98921.41;5094111;28;1889;-56
2023/03/15 01:53:09;;;;;;;;;;;;;;;-0.81;100.00;98915.34;5093966;28;851;-57
2023/03/15 01:55:36;;;;;;;;;;;;;;;-0.88;100.00;98917.88;5094117;28;907;-56
2023/03/15 01:58:05;;;;;;;;;;;;;;;-0.89;100.00;98911.66;5094021;28;872;-55
2023/03/15 02:00:32;;;;;;;;;;;;;;;-0.91;100.00;98911.22;5093919;28;836;-55
2023/03/15 02:03:02;;;;;;;;;;;;;;;-0.90;100.00;98909.28;5093919;28;816;-54
2023/03/15 02:05:32;;;;;;;;;;;;;;;-0.76;100.00;98909.66;5094129;28;867;-55
2023/03/15 02:07:59;;;;;;;;;;;;;;;-0.60;100.00;98906.16;5094136;28;1057;-55
2023/03/15 02:10:41;;;;;;;;;;;;;;;-0.49;100.00;98899.88;5093525;28;1979;-55
2023/03/15 02:13:08;;;;;;;;;;;;;;;-0.51;100.00;98898.63;5093779;28;902;-57
2023/03/15 02:15:35;;;;;;;;;;;;;;;-0.56;100.00;98898.91;5093648;28;947;-54
2023/03/15 02:18:02;;;;;;;;;;;;;;;-0.67;100.00;98902.13;5093663;28;875;-55
2023/03/15 02:20:39;;;;;;;;;;;;;;;-0.67;100.00;98899.41;5093585;28;835;-55
2023/03/15 02:23:08;;;;;;;;;;;;;;;-0.56;100.00;98896.19;5092959;28;832;-55
2023/03/15 02:25:53;;;;;;;;;;;;;;;-0.65;100.00;98897.16;5093551;28;820;-56
2023/03/15 02:28:20;;;;;;;;;;;;;;;-0.80;100.00;98899.84;5093699;28;847;-57
2023/03/15 02:30:47;;;;;;;;;;;;;;;-0.80;100.00;98899.84;5093475;28;1949;-57
2023/03/15 02:33:20;;;;;;;;;;;;;;;-0.81;100.00;98901.78;5093536;28;824;-56
2023/03/15 02:35:46;;;;;;;;;;;;;;;-0.77;100.00;98904.56;5075162;28;1223;-56
2023/03/15 02:38:13;;;;;;;;;;;;;;;-0.81;100.00;98909.94;5093251;28;899;-57
2023/03/15 02:40:39;;;;;;;;;;;;;;;-0.84;100.00;98911.38;5093272;28;835;-57
2023/03/15 02:43:12;;;;;;;;;;;;;;;-0.87;100.00;98916.75;5093088;28;807;-55
2023/03/15 02:45:39;;;;;;;;;;;;;;;-0.92;100.00;98919.69;5093120;28;824;-57
2023/03/15 02:48:08;;;;;;;;;;;;;;;-1.19;100.00;98929.44;5074799;28;1462;-55
2023/03/15 02:50:34;;;;;;;;;;;;;;;-1.51;100.00;98915.75;5093138;28;1955;-55
2023/03/15 02:53:01;;;;;;;;;;;;;;;-1.75;100.00;98908.47;5093149;28;891;-55
2023/03/15 02:55:28;;;;;;;;;;;;;;;-1.93;100.00;98914.13;5092931;28;894;-54
2023/03/15 02:57:55;;;;;;;;;;;;;;;-2.09;100.00;98915.94;5092854;28;909;-56
2023/03/15 03:00:22;;;;;;;;;;;;;;;-2.16;100.00;98918.44;5092846;28;858;-55
2023/03/15 03:02:48;;;;;;;;;;;;;;;-2.08;100.00;98910.19;5092804;28;919;-55
2023/03/15 03:05:15;;;;;;;;;;;;;;;-1.92;100.00;98909.50;5092651;28;891;-55
2023/03/15 03:07:42;;;;;;;;;;;;;;;-1.78;100.00;98915.34;5092928;28;1019;-55
2023/03/15 03:10:10;;;;;;;;;;;;;;;-1.72;100.00;98919.41;5092424;28;2271;-53
2023/03/15 03:12:36;;;;;;;;;;;;;;;-1.81;100.00;98909.81;5092729;28;859;-54
2023/03/15 03:15:03;;;;;;;;;;;;;;;-1.87;100.00;98909.28;5092521;28;851;-54
2023/03/15 03:17:30;;;;;;;;;;;;;;;-1.98;100.00;98917.09;5092495;28;855;-53
2023/03/15 03:19:57;;;;;;;;;;;;;;;-2.07;100.00;98927.22;5092437;28;882;-53
2023/03/15 03:22:23;;;;;;;;;;;;;;;-2.14;100.00;98919.69;5092331;28;871;-56
2023/03/15 03:24:50;;;;;;;;;;;;;;;-2.20;100.00;98922.94;5092472;28;870;-54
2023/03/15 03:27:17;;;;;;;;;;;;;;;-2.08;100.00;98921.03;5092454;28;836;-55
2023/03/15 03:29:44;;;;;;;;;;;;;;;-1.75;100.00;98927.44;5092200;28;1956;-55
2023/03/15 03:32:10;;;;;;;;;;;;;;;-1.61;100.00;98929.78;5092232;28;878;-56
2023/03/15 03:34:37;;;;;;;;;;;;;;;-1.48;100.00;98942.16;5091310;28;986;-55
2023/03/15 03:37:04;;;;;;;;;;;;;;;-1.54;100.00;98924.56;5092125;28;918;-56
2023/03/15 03:39:31;;;;;;;;;;;;;;;-1.67;100.00;98926.50;5092143;28;937;-55
2023/03/15 03:41:57;;;;;;;;;;;;;;;-1.87;100.00;98930.97;5092278;28;816;-54
2023/03/15 03:44:24;;;;;;;;;;;;;;;-1.99;100.00;98926.31;5091993;28;918;-55
2023/03/15 03:46:50;;;;;;;;;;;;;;;-1.98;100.00;98922.50;5092013;28;820;-55
2023/03/15 03:49:16;;;;;;;;;;;;;;;-2.09;100.00;98922.16;5091989;28;883;-55
2023/03/15 03:51:43;;;;;;;;;;;;;;;-2.10;100.00;98927.91;5091828;28;1902;-57
2023/03/15 03:54:09;;;;;;;;;;;;;;;-2.13;100.00;98923.19;5091923;28;867;-56
2023/03/15 03:56:36;;;;;;;;;;;;;;;-1.98;100.00;98925.22;5092135;28;898;-54
2023/03/15 03:59:03;;;;;;;;;;;;;;;-1.96;100.00;98924.84;5092059;28;816;-52
2023/03/15 04:01:30;;;;;;;;;;;;;;;-1.98;100.00;98919.78;5091839;28;832;-57
2023/03/15 04:03:56;;;;;;;;;;;;;;;-1.95;100.00;98918.31;5091816;28;839;-56
2023/03/15 04:06:23;;;;;;;;;;;;;;;-1.90;100.00;98921.59;5091756;28;890;-56
2023/03/15 04:08:50;;;;;;;;;;;;;;;-1.78;100.00;98917.28;5091788;28;958;-57
2023/03/15 04:11:16;;;;;;;;;;;;;;;-1.77;100.00;98913.44;5091437;28;1902;-57
2023/03/15 04:13:46;;;;;;;;;;;;;;;-1.81;100.00;98921.47;5091634;28;828;-57
2023/03/15 04:16:13;;;;;;;;;;;;;;;-1.99;100.00;98929.03;5091585;28;828;-57
2023/03/15 04:18:39;;;;;;;;;;;;;;;-2.01;100.00;98923.16;5091529;28;819;-56
2023/03/15 04:21:09;;;;;;;;;;;;;;;-1.92;100.00;98923.03;5073247;28;1353;-55
2023/03/15 04:23:36;;;;;;;;;;;;;;;-1.89;100.00;98923.16;5091422;28;834;-55
2023/03/15 04:26:04;;;;;;;;;;;;;;;-1.86;100.00;98921.69;5091510;28;839;-55
2023/03/15 04:28:31;;;;;;;;;;;;;;;-1.90;100.00;98921.59;5091424;28;867;-55
2023/03/15 04:31:00;;;;;;;;;;;;;;;-1.77;100.00;98918.84;5073209;28;1894;-55
2023/03/15 04:33:27;;;;;;;;;;;;;;;-1.71;100.00;98915.59;5091330;28;864;-56
2023/03/15 04:35:54;;;;;;;;;;;;;;;-1.65;100.00;98910.69;5091347;28;876;-55
2023/03/15 04:38:25;;;;;;;;;;;;;;;-1.57;100.00;98907.06;5091353;28;843;-57
2023/03/15 04:40:55;;;;;;;;;;;;;;;-1.34;100.00;98904.63;5091320;28;886;-57
2023/03/15 04:43:23;;;;;;;;;;;;;;;-1.17;100.00;98902.72;5091351;28;816;-56
2023/03/15 04:45:50;;;;;;;;;;;;;;;-1.08;100.00;98901.47;5093261;28;898;-57
2023/03/15 04:48:17;;;;;;;;;;;;;;;-0.96;100.00;98894.38;5095330;28;847;-56
2023/03/15 04:50:43;;;;;;;;;;;;;;;-0.74;100.00;98893.03;5095210;28;1929;-57
2023/03/15 04:53:10;;;;;;;;;;;;;;;-0.47;100.00;98902.22;5095244;28;874;-55
2023/03/15 04:55:36;;;;;;;;;;;;;;;-0.21;100.00;98897.06;5095284;28;812;-55
2023/03/15 04:58:02;;;;;;;;;;;;;;;-0.09;100.00;98896.16;5095118;28;863;-55
2023/03/15 05:00:29;;;;;;;;;;;;;;;-0.02;100.00;98884.69;5095200;28;828;-57
2023/03/15 05:02:55;;;;;;;;;;;;;;;0.05;100.00;98886.75;5095067;28;859;-57
2023/03/15 05:05:22;;;;;;;;;;;;;;;0.16;100.00;98879.63;5095076;28;823;-57
2023/03/15 05:07:49;;;;;;;;;;;;;;;0.26;100.00;98870.94;5094952;28;936;-57
2023/03/15 05:10:17;;;;;;;;;;;;;;;0.42;100.00;98878.22;5094702;28;1959;-57
2023/03/15 05:12:55;;;;;;;;;;;;;;;0.69;100.00;98879.16;5095131;28;843;-54
2023/03/15 05:15:33;;;;;;;;;;;;;;;1.03;100.00;98880.19;5076566;28;1305;-57
2023/03/15 05:18:00;;;;;;;;;;;;;;;1.47;100.00;98877.06;5094913;28;824;-57
2023/03/15 05:20:27;;;;;;;;;;;;;;;1.77;100.00;98879.91;5094736;28;878;-55
2023/03/15 05:22:53;;;;;;;;;;;;;;;1.78;100.00;98875.22;5094768;28;803;-55
2023/03/15 05:25:23;;;;;;;;;;;;;;;1.82;100.00;98870.63;5094740;28;870;-54
2023/03/15 05:27:51;;;;;;;;;;;;;;;2.06;100.00;98866.69;5094782;28;863;-54
2023/03/15 05:30:18;;;;;;;;;;;;;;;2.44;100.00;98870.31;5076474;28;1902;-54
2023/03/15 05:32:45;;;;;;;;;;;;;;;3.09;100.00;98876.50;5094639;28;823;-55
2023/03/15 05:35:12;;;;;;;;;;;;;;;3.62;100.00;98871.50;5095199;28;796;-55
2023/03/15 05:37:39;;;;;;;;;;;;;;;4.05;100.00;98874.56;5094523;28;836;-55
2023/03/15 05:40:07;;;;;;;;;;;;;;;4.60;100.00;98883.84;5094819;28;862;-55
2023/03/15 05:42:33;;;;;;;;;;;;;;;5.45;100.00;98880.53;5076402;28;1307;-55
2023/03/15 05:45:06;;;;;;;;;;;;;;;6.24;100.00;98877.75;5094825;28;800;-55
2023/03/15 05:47:35;;;;;;;;;;;;;;;6.53;100.00;98872.22;5094385;28;804;-55
2023/03/15 05:50:03;;;;;;;;;;;;;;;6.24;100.00;98875.03;5075909;28;1885;-56
2023/03/15 05:52:30;;;;;;;;;;;;;;;5.76;100.00;98872.72;5094167;28;926;-56
2023/03/15 05:55:07;;;;;;;;;;;;;;;5.63;100.00;98875.06;5094318;28;796;-56
2023/03/15 05:57:33;;;;;;;;;;;;;;;6.20;100.00;98870.72;5093219;28;878;-56
2023/03/15 06:00:00;;;;;;;;;;;;;;;6.21;100.00;98867.59;5094048;28;859;-56
2023/03/15 06:02:30;;;;;;;;;;;;;;;6.54;100.00;98865.53;5094066;28;887;-56
2023/03/15 06:04:57;;;;;;;;;;;;;;;7.46;100.00;98868.94;5094001;28;847;-56
2023/03/15 06:07:24;;;;;;;;;;;;;;;8.06;100.00;98875.09;5094634;28;773;-56
2023/03/15 06:09:50;;;;;;;;;;;;;;;8.30;100.00;98867.81;5093740;28;1953;-56
2023/03/15 06:12:18;;;;;;;;;;;;;;;8.36;100.00;98871.69;5094072;28;867;-56
2023/03/15 06:14:45;;;;;;;;;;;;;;;8.33;100.00;98872.47;5094789;28;855;-55
2023/03/15 06:17:10;;;;;;;;;;;;;;;8.38;100.00;98869.28;5094440;28;863;-55
2023/03/15 06:19:37;;;;;;;;;;;;;;;8.74;100.00;98863.38;5093546;28;883;-55
2023/03/15 06:22:03;;;;;;;;;;;;;;;8.92;100.00;98848.59;5093649;28;923;-55
2023/03/15 06:24:30;;;;;;;;;;;;;;;8.49;100.00;98847.19;5093557;28;855;-55
2023/03/15 06:26:56;;;;;;;;;;;;;;;8.17;100.00;98833.72;5093537;28;887;-54
2023/03/15 06:29:22;;;;;;;;;;;;;;;8.05;100.00;98835.03;5093779;28;824;-55
2023/03/15 06:31:58;;;;;;;;;;;;;;;8.23;100.00;98826.56;5093344;28;1893;-55
2023/03/15 06:34:23;;;;;;;;;;;;;;;8.83;100.00;98818.00;5093521;28;883;-55
2023/03/15 06:36:51;;;;;;;;;;;;;;;9.35;95.46;98817.66;5093568;28;871;-55
2023/03/15 06:39:17;;;;;;;;;;;;;;;9.39;94.15;98805.38;5093358;28;896;-55
2023/03/15 06:41:43;;;;;;;;;;;;;;;9.47;92.07;98819.03;5093487;28;858;-55
2023/03/15 06:44:09;;;;;;;;;;;;;;;9.04;93.78;98819.69;5093493;28;894;-55
2023/03/15 06:46:43;;;;;;;;;;;;;;;9.60;90.80;98825.50;5093309;28;850;-56
2023/03/15 06:49:09;;;;;;;;;;;;;;;10.04;88.86;98817.28;5074765;28;1362;-55
2023/03/15 06:51:38;;;;;;;;;;;;;;;9.96;86.04;98824.91;5093054;28;1918;-56
2023/03/15 06:54:05;;;;;;;;;;;;;;;10.05;84.80;98819.63;5092986;28;879;-56
2023/03/15 06:56:51;;;;;;;;;;;;;;;10.94;81.18;98810.72;5093079;28;855;-54
2023/03/15 06:59:18;;;;;;;;;;;;;;;11.90;75.87;98813.19;5092913;28;815;-53
2023/03/15 07:01:44;;;;;;;;;;;;;;;13.13;72.09;98800.19;5092885;28;884;-53
2023/03/15 07:04:11;;;;;;;;;;;;;;;13.59;64.13;98799.94;5092900;28;839;-53
2023/03/15 07:07:00;;;;;;;;;;;;;;;13.80;62.75;98804.00;5092820;28;815;-51
2023/03/15 07:09:27;;;;;;;;;;;;;;;13.76;61.07;98801.38;5092361;28;1367;-53
2023/03/15 07:12:06;;;;;;;;;;;;;;;12.95;60.29;98794.41;5092690;28;1914;-54
2023/03/15 07:14:33;;;;;;;;;;;;;;;12.74;61.11;98793.06;5092697;28;895;-53
2023/03/15 07:17:00;;;;;;;;;;;;;;;13.33;59.73;98796.44;5074277;28;906;-54
2023/03/15 07:19:26;;;;;;;;;;;;;;;13.04;57.41;98789.00;5092507;28;864;-54
2023/03/15 07:22:06;;;;;;;;;;;;;;;12.80;54.73;98797.63;5092499;28;875;-51
2023/03/15 07:24:33;;;;;;;;;;;;;;;12.99;54.08;98786.75;5092426;28;942;-52
2023/03/15 07:26:59;;;;;;;;;;;;;;;13.74;52.81;98789.94;5092460;28;944;-51
2023/03/15 07:29:25;;;;;;;;;;;;;;;14.22;49.47;98795.41;5092386;28;832;-53
2023/03/15 07:31:53;;;;;;;;;;;;;;;14.26;50.01;98790.50;5092270;28;1949;-53
2023/03/15 07:34:22;;;;;;;;;;;;;;;13.94;49.80;98789.63;5074045;28;1211;-53
2023/03/15 07:37:29;;;;;;;;;;;;;;;13.87;48.88;98781.56;5092253;28;913;-54
2023/03/15 07:40:11;;;;;;;;;;;;;;;14.03;48.79;98780.59;5082922;28;1591;-53
2023/03/15 07:42:38;;;;;;;;;;;;;;;13.80;50.48;98762.34;5092307;28;845;-53
2023/03/15 07:45:09;;;;;;;;;;;;;;;13.43;50.53;98775.88;5092343;28;903;-53
2023/03/15 07:47:45;;;;;;;;;;;;;;;13.20;51.24;98766.66;5091982;28;804;-52
2023/03/15 07:50:12;;;;;;;;;;;;;;;13.09;53.18;98755.13;5073732;28;1952;-55
2023/03/15 07:52:37;;;;;;;;;;;;;;;12.15;53.26;98750.81;5091893;28;1783;-56
2023/03/15 07:55:17;;;;;;;;;;;;;;;11.42;56.16;98748.38;5092173;28;832;-56
2023/03/15 07:57:45;;;;;;;;;;;;;;;11.38;58.62;98759.53;5091836;28;1266;-56
2023/03/15 08:00:12;;;;;;;;;;;;;;;11.73;59.24;98765.34;5091896;28;863;-56
2023/03/15 08:02:42;;;;;;;;;;;;;;;11.77;57.70;98762.50;5091911;28;891;-56
2023/03/15 08:05:09;;;;;;;;;;;;;;;11.98;58.17;98758.41;5091759;28;847;-56
2023/03/15 08:07:36;;;;;;;;;;;;;;;12.03;57.25;98747.59;5091795;28;875;-56
2023/03/15 08:10:05;;;;;;;;;;;;;;;11.76;57.56;98749.88;5091568;28;1898;-56
2023/03/15 08:12:32;;;;;;;;;;;;;;;11.28;59.47;98757.00;5091682;28;824;-56
2023/03/15 08:15:10;;;;;;;;;;;;;;;11.62;59.05;98762.09;5091688;28;835;-56
2023/03/15 08:17:36;;;;;;;;;;;;;;;12.32;58.89;98760.63;5073708;28;1227;-56
2023/03/15 08:20:04;;;;;;;;;;;;;;;12.59;56.66;98759.47;5091293;28;1194;-56
2023/03/15 08:29:06;;;;;;;;;;;;;;;12.84;55.56;98750.38;5091650;28;607;-56
2023/03/15 08:31:33;;;;;;;;;;;;;;;12.32;57.31;98757.84;5091487;28;1889;-56
2023/03/15 08:34:02;;;;;;;;;;;;;;;12.65;54.79;98755.69;5091483;28;831;-55
2023/03/15 08:36:31;;;;;;;;;;;;;;;12.96;53.69;98751.59;5092323;28;752;-55
2023/03/15 08:39:00;;;;;;;;;;;;;;;12.99;53.76;98756.25;5091664;28;898;-55
2023/03/15 08:41:26;;;;;;;;;;;;;;;13.44;53.19;98758.00;5091420;28;795;-56
2023/03/15 08:43:54;;;;;;;;;;;;;;;13.63;51.65;98742.28;5091505;28;803;-54
2023/03/15 08:46:21;;;;;;;;;;;;;;;13.66;51.77;98742.19;5091239;28;910;-55
2023/03/15 08:48:51;;;;;;;;;;;;;;;13.83;51.57;98734.47;5091360;28;804;-55
2023/03/15 08:51:18;;;;;;;;;;;;;;;14.39;51.39;98735.59;5091187;28;1897;-56
2023/03/15 08:53:45;;;;;;;;;;;;;;;14.78;49.51;98732.59;5091354;28;855;-56
2023/03/15 08:56:12;;;;;;;;;;;;;;;15.08;48.36;98740.13;5073051;28;2089;-56
2023/03/15 08:58:38;;;;;;;;;;;;;;;15.29;48.44;98732.91;5091291;28;816;-56
2023/03/15 09:01:05;;;;;;;;;;;;;;;15.14;46.71;98731.94;5091214;28;816;-56
2023/03/15 09:03:32;;;;;;;;;;;;;;;14.94;47.35;98717.66;5091472;28;815;-56
2023/03/15 09:05:59;;;;;;;;;;;;;;;14.89;48.48;98716.25;5091214;28;839;-55
2023/03/15 09:08:25;;;;;;;;;;;;;;;14.89;49.49;98717.03;5091249;28;940;-56
2023/03/15 09:10:55;;;;;;;;;;;;;;;14.95;47.72;98724.78;5090727;28;1894;-55
2023/03/15 09:13:23;;;;;;;;;;;;;;;14.88;47.44;98723.81;5091276;28;862;-55
2023/03/15 09:15:50;;;;;;;;;;;;;;;14.92;46.22;98722.91;5091010;28;827;-55
2023/03/15 09:18:17;;;;;;;;;;;;;;;15.01;45.76;98725.72;5091095;28;827;-55
2023/03/15 09:20:44;;;;;;;;;;;;;;;14.86;46.68;98722.75;5091068;28;847;-55
2023/03/15 09:23:10;;;;;;;;;;;;;;;14.41;46.68;98716.47;5090958;28;878;-55
2023/03/15 09:25:38;;;;;;;;;;;;;;;14.26;47.43;98721.03;5091018;28;812;-56
2023/03/15 09:28:06;;;;;;;;;;;;;;;14.23;48.67;98722.72;5091196;28;930;-56
2023/03/15 09:30:32;;;;;;;;;;;;;;;14.01;50.71;98727.47;5090878;28;1943;-56
2023/03/15 09:32:59;;;;;;;;;;;;;;;14.23;49.44;98724.69;5092971;28;863;-56
2023/03/15 09:35:25;;;;;;;;;;;;;;;14.43;47.45;98716.78;5094612;28;816;-56
2023/03/15 09:37:57;;;;;;;;;;;;;;;14.49;47.81;98717.00;5094485;28;895;-56
2023/03/15 10:09:14;;;;;;;;;;;;;;;15.12;40.88;98670.41;6071423;22;1748;-68
2023/03/15 10:11:42;;;;;;;;;;;;;;;14.91;40.81;98658.13;5073736;28;1969;-65
2023/03/15 10:14:27;;;;;;;;;;;;;;;14.96;40.54;98657.56;5073699;28;909;-66
2023/03/15 10:16:54;;;;;;;;;;;;;;;15.28;39.72;98656.22;5073693;28;835;-66
2023/03/15 10:19:30;;;;;;;;;;;;;;;15.41;39.32;98650.50;5073549;28;807;-66
2023/03/15 10:22:12;;;;;;;;;;;;;;;15.36;37.94;98650.31;5073847;28;878;-65
2023/03/15 10:24:59;;;;;;;;;;;;;;;15.05;38.60;98649.22;5073566;28;880;-66
2023/03/15 10:27:33;;;;;;;;;;;;;;;15.31;38.33;98651.72;5072043;28;1475;-67
2023/03/15 10:30:01;;;;;;;;;;;;;;;14.86;37.27;98647.63;5073651;28;1902;-66
2023/03/15 10:32:35;;;;;;;;;;;;;;;14.96;37.94;98642.88;5073509;28;827;-65
2023/03/15 10:35:11;;;;;;;;;;;;;;;15.41;36.60;98631.00;5073372;28;871;-67
2023/03/15 10:37:37;;;;;;;;;;;;;;;15.73;36.89;98633.66;5073221;28;934;-65
2023/03/15 10:40:09;;;;;;;;;;;;;;;15.91;36.63;98631.59;5073051;28;1048;-66
2023/03/15 10:42:35;;;;;;;;;;;;;;;15.76;36.18;98633.47;5073535;28;851;-66
2023/03/15 10:45:11;;;;;;;;;;;;;;;15.60;36.44;98622.66;5073306;28;842;-66
2023/03/15 10:47:41;;;;;;;;;;;;;;;15.52;36.31;98630.53;5073091;28;824;-66
2023/03/15 10:50:08;;;;;;;;;;;;;;;15.59;36.81;98615.53;5071582;28;1943;-66
2023/03/15 10:52:37;;;;;;;;;;;;;;;15.88;36.84;98615.06;5072931;28;851;-65
2023/03/15 10:55:12;;;;;;;;;;;;;;;16.07;37.52;98610.97;5071519;28;1372;-65
2023/03/15 10:57:41;;;;;;;;;;;;;;;16.11;36.96;98608.81;5073264;28;839;-65
2023/03/15 11:00:28;;;;;;;;;;;;;;;16.29;36.40;98601.59;5072758;28;891;-66
2023/03/15 11:03:05;;;;;;;;;;;;;;;15.81;36.16;98585.50;5071492;28;1152;-65
2023/03/15 11:05:41;;;;;;;;;;;;;;;15.88;37.33;98587.97;5072723;28;784;-64
2023/03/15 11:08:28;;;;;;;;;;;;;;;15.91;37.65;98581.44;5072852;28;1109;-65
2023/03/15 11:10:58;;;;;;;;;;;;;;;15.86;37.23;98579.28;5100216;28;1955;-63
2023/03/15 11:13:26;;;;;;;;;;;;;;;16.04;38.05;98572.13;5113283;28;863;-65
2023/03/15 11:15:54;;;;;;;;;;;;;;;16.36;36.99;98572.63;5113150;28;856;-66
2023/03/15 11:18:26;;;;;;;;;;;;;;;16.69;37.12;98572.59;5113067;28;819;-64
2023/03/15 11:20:54;;;;;;;;;;;;;;;17.41;36.41;98569.78;5112941;28;835;-66
2023/03/15 11:23:25;;;;;;;;;;;;;;;17.82;35.06;98572.81;5113004;28;894;-65
2023/03/15 11:25:52;;;;;;;;;;;;;;;17.93;33.98;98561.06;5111588;28;1445;-63
2023/03/15 11:28:20;;;;;;;;;;;;;;;18.11;33.86;98565.66;5112844;28;842;-65
2023/03/15 11:30:46;;;;;;;;;;;;;;;17.90;33.36;98560.00;5112715;28;1890;-64
2023/03/15 11:33:23;;;;;;;;;;;;;;;17.50;33.81;98552.91;5113018;28;839;-65
2023/03/15 11:35:51;;;;;;;;;;;;;;;17.41;34.15;98552.22;5111420;28;1181;-65
2023/03/15 11:38:26;;;;;;;;;;;;;;;17.66;34.29;98554.47;5112677;28;878;-64
2023/03/15 11:40:58;;;;;;;;;;;;;;;17.74;34.34;98547.25;5112693;28;814;-66
2023/03/15 11:43:40;;;;;;;;;;;;;;;17.86;33.75;98542.66;5112597;28;847;-65
2023/03/15 11:46:09;;;;;;;;;;;;;;;17.54;34.02;98547.91;5112559;28;846;-66
2023/03/15 11:48:47;;;;;;;;;;;;;;;17.43;33.73;98538.56;5112699;28;771;-65
2023/03/15 11:51:14;;;;;;;;;;;;;;;17.31;33.56;98543.94;5112430;28;1889;-66
2023/03/15 11:53:46;;;;;;;;;;;;;;;17.00;34.41;98540.78;5112774;28;850;-65
2023/03/15 11:56:26;;;;;;;;;;;;;;;16.80;35.59;98533.81;5111638;28;803;-65
2023/03/15 11:59:07;;;;;;;;;;;;;;;17.10;35.32;98542.25;5112637;28;840;-65
2023/03/15 12:01:34;;;;;;;;;;;;;;;17.29;35.83;98537.28;5112304;28;851;-66
2023/03/15 12:04:19;;;;;;;;;;;;;;;17.29;35.15;98534.50;5112274;28;900;-66
2023/03/15 12:06:45;;;;;;;;;;;;;;;16.78;35.50;98533.47;5111999;28;863;-66
2023/03/15 12:09:35;;;;;;;;;;;;;;;16.48;36.71;98533.34;5112194;28;1338;-66
2023/03/15 12:12:05;;;;;;;;;;;;;;;15.97;36.94;98531.44;5102062;28;1902;-66
2023/03/15 12:14:35;;;;;;;;;;;;;;;15.87;37.73;98525.13;5110861;28;1278;-65
2023/03/15 12:17:20;;;;;;;;;;;;;;;15.88;38.40;98521.09;5112092;28;983;-65
2023/03/15 12:19:58;;;;;;;;;;;;;;;15.74;38.03;98526.56;5112014;28;921;-67
2023/03/15 12:22:29;;;;;;;;;;;;;;;15.66;38.34;98534.44;5112219;28;906;-66
2023/03/15 12:24:57;;;;;;;;;;;;;;;15.48;37.91;98527.66;5112162;28;917;-66
2023/03/15 12:27:27;;;;;;;;;;;;;;;15.44;38.19;98534.63;5112042;28;905;-67
2023/03/15 12:30:02;;;;;;;;;;;;;;;15.41;38.41;98533.56;5112240;28;822;-66
2023/03/15 12:32:29;;;;;;;;;;;;;;;15.68;38.80;98535.53;5112540;28;822;-66
2023/03/15 12:34:57;;;;;;;;;;;;;;;15.90;38.11;98538.13;5112302;28;803;-65
2023/03/15 12:37:27;;;;;;;;;;;;;;;16.50;37.06;98533.66;5112030;28;929;-66
2023/03/15 12:40:12;;;;;;;;;;;;;;;17.02;36.35;98541.84;5110590;28;1170;-66
2023/03/15 12:42:38;;;;;;;;;;;;;;;17.23;35.92;98537.19;5111939;28;838;-67
2023/03/15 12:45:17;;;;;;;;;;;;;;;17.33;35.48;98538.66;5112771;28;835;-66
2023/03/15 12:47:50;;;;;;;;;;;;;;;17.45;37.04;98534.03;5111808;28;799;-66
2023/03/15 12:50:35;;;;;;;;;;;;;;;17.12;37.13;98545.34;5111704;28;1910;-66
2023/03/15 12:53:03;;;;;;;;;;;;;;;16.60;39.37;98534.38;5111699;28;791;-66
2023/03/15 12:55:33;;;;;;;;;;;;;;;16.66;40.18;98540.84;5111719;28;878;-67
2023/03/15 12:58:04;;;;;;;;;;;;;;;17.46;39.20;98530.00;5111687;28;906;-66
2023/03/15 13:00:32;;;;;;;;;;;;;;;18.09;37.58;98529.81;5111809;28;874;-67
2023/03/15 13:03:11;;;;;;;;;;;;;;;18.17;37.74;98528.13;5111755;28;878;-67
2023/03/15 13:05:52;;;;;;;;;;;;;;;18.73;36.49;98521.78;5111514;28;819;-66
2023/03/15 13:08:28;;;;;;;;;;;;;;;18.86;35.43;98515.84;5115645;28;1043;-66
2023/03/15 13:11:14;;;;;;;;;;;;;;;17.97;36.49;98521.72;5115227;28;1972;-66
2023/03/15 13:13:49;;;;;;;;;;;;;;;16.80;37.99;98528.22;5115471;28;878;-66
2023/03/15 13:16:34;;;;;;;;;;;;;;;16.39;39.63;98527.84;5115739;28;834;-66
2023/03/15 13:19:23;;;;;;;;;;;;;;;17.41;38.91;98532.69;5115291;28;855;-66
2023/03/15 13:22:08;;;;;;;;;;;;;;;18.40;36.82;98522.09;5116055;28;791;-66
2023/03/15 13:24:35;;;;;;;;;;;;;;;18.90;36.03;98522.78;5115202;28;922;-66
2023/03/15 13:27:16;;;;;;;;;;;;;;;18.70;35.29;98517.94;5115252;28;902;-66
2023/03/15 13:29:43;;;;;;;;;;;;;;;18.65;35.72;98515.03;5115578;28;819;-67
2023/03/15 13:32:14;;;;;;;;;;;;;;;18.95;35.32;98510.88;5115042;28;1929;-68
2023/03/15 13:34:43;;;;;;;;;;;;;;;18.95;34.97;98510.13;5115144;28;842;-67
2023/03/15 13:37:27;;;;;;;;;;;;;;;18.51;35.72;98505.47;5115050;28;847;-66
2023/03/15 13:39:56;;;;;;;;;;;;;;;18.26;35.75;98513.25;5115002;28;851;-67
2023/03/15 13:42:23;;;;;;;;;;;;;;;18.36;36.09;98508.31;5114898;28;885;-67
2023/03/15 13:45:06;;;;;;;;;;;;;;;18.13;36.13;98507.97;5114897;28;867;-66
2023/03/15 13:47:35;;;;;;;;;;;;;;;18.13;35.79;98507.22;5114941;28;823;-66
2023/03/15 13:50:06;;;;;;;;;;;;;;;18.11;35.49;98510.50;5114809;28;819;-66